Time;durP1;ratioP1;P1;durP2;ratioP2;P2;SDS_P1;SDS_P2;PMS_P1;PMS_P2;Temp;Humidity;BMP_temperature;BMP_pressure;BME280_temperature;BME280_humidity;BME280_pressure;Samples;Min_cycle;Max_cycle;Signal;HPM_P1;HPM_P2
2023/03/14 00:01:29;;;;;;;1.92;0.95;;;;;;;12.49;42.05;98755.53;5009981;28;20066;-75
2023/03/14 00:03:57;;;;;;;3.55;1.10;;;;;;;12.49;41.97;98741.81;5013798;28;20045;-74
2023/03/14 00:06:25;;;;;;;2.42;1.10;;;;;;;12.49;42.19;98734.44;5015044;28;20054;-75
2023/03/14 00:08:54;;;;;;;2.55;1.30;;;;;;;12.50;41.80;98730.63;5009434;28;20049;-75
2023/03/14 00:11:22;;;;;;;3.00;1.13;;;;;;;12.49;41.94;98709.72;5009911;28;20064;-74
2023/03/14 00:13:51;;;;;;;1.85;1.00;;;;;;;12.49;41.74;98704.25;5014218;28;20087;-75
2023/03/14 00:16:20;;;;;;;2.47;0.95;;;;;;;12.49;41.65;98712.47;5010385;28;20133;-75
2023/03/14 00:18:48;;;;;;;4.13;1.10;;;;;;;12.50;41.74;98721.56;5013646;28;20050;-75
2023/03/14 00:21:16;;;;;;;3.58;1.02;;;;;;;12.49;41.63;98728.94;5011052;28;20054;-75
2023/03/14 00:23:44;;;;;;;3.70;1.15;;;;;;;12.50;41.68;98735.28;5013559;28;20088;-75
2023/03/14 00:26:16;;;;;;;3.17;0.95;;;;;;;12.51;42.19;98753.44;5010261;28;20074;-75
2023/03/14 00:28:44;;;;;;;3.42;1.27;;;;;;;12.49;41.82;98759.13;5013472;28;20168;-75
2023/03/14 00:31:14;;;;;;;2.78;1.10;;;;;;;12.49;41.95;98761.88;5020790;28;20053;-75
2023/03/14 00:33:42;;;;;;;3.25;0.98;;;;;;;12.49;41.68;98767.34;5009628;28;20145;-75
2023/03/14 00:36:13;;;;;;;3.25;0.90;;;;;;;12.50;41.45;98787.41;5009038;28;20038;-75
2023/03/14 00:38:42;;;;;;;3.63;1.40;;;;;;;12.50;42.11;98781.91;5006147;28;20041;-76
2023/03/14 00:41:12;;;;;;;2.00;0.85;;;;;;;12.49;42.34;98805.75;5010499;28;20050;-76
2023/03/14 00:43:43;;;;;;;4.15;1.40;;;;;;;12.49;42.56;98827.72;5016864;28;20339;-76
2023/03/14 00:46:11;;;;;;;3.25;1.10;;;;;;;12.48;42.34;98808.69;5009531;28;20084;-78
2023/03/14 00:48:39;;;;;;;3.60;1.00;;;;;;;12.46;42.65;98813.53;5017448;28;20104;-79
2023/03/14 00:51:09;;;;;;;2.38;0.80;;;;;;;12.42;42.76;98806.75;5017690;28;20062;-78
2023/03/14 00:53:38;;;;;;;3.22;1.00;;;;;;;12.33;42.55;98819.75;5020709;28;20493;-79
2023/03/14 00:56:09;;;;;;;1.65;0.77;;;;;;;12.27;42.58;98812.28;5027420;28;20113;-78
2023/03/14 00:58:38;;;;;;;1.80;0.68;;;;;;;12.16;43.23;98812.81;5019924;28;20145;-78
2023/03/14 01:01:09;;;;;;;2.67;0.88;;;;;;;12.12;42.95;98808.75;5019902;28;20064;-77
2023/03/14 01:03:37;;;;;;;2.85;0.65;;;;;;;12.02;43.26;98803.59;5023156;28;20161;-78
2023/03/14 01:06:13;;;;;;;2.55;0.80;;;;;;;11.98;43.83;98787.69;5017929;28;20061;-78
2023/03/14 01:08:43;;;;;;;2.15;0.70;;;;;;;11.87;43.74;98780.84;5016303;28;20061;-78
2023/03/14 01:11:15;;;;;;;1.00;0.50;;;;;;;11.83;43.89;98784.16;5019296;28;20510;-78
2023/03/14 01:13:43;;;;;;;1.40;0.45;;;;;;;11.77;44.12;98773.97;5021328;28;20066;-78
2023/03/14 01:16:13;;;;;;;2.15;0.70;;;;;;;11.73;44.09;98785.31;5013488;28;20053;-78
2023/03/14 01:18:44;;;;;;;2.83;0.70;;;;;;;11.68;44.27;98784.19;5016155;28;20034;-78
2023/03/14 01:21:15;;;;;;;2.08;0.70;;;;;;;11.61;43.97;98786.88;5016963;28;20034;-78
2023/03/14 01:23:43;;;;;;;2.10;0.60;;;;;;;11.54;43.88;98783.16;5020839;28;20049;-77
2023/03/14 01:26:13;;;;;;;1.75;0.50;;;;;;;11.50;44.30;98786.44;5018420;28;20046;-78
2023/03/14 01:28:41;;;;;;;1.67;0.70;;;;;;;11.44;44.05;98782.59;5021108;28;20133;-78
2023/03/14 01:31:15;;;;;;;1.88;1.05;;;;;;;11.40;44.20;98773.03;5017892;28;20046;-77
2023/03/14 01:33:43;;;;;;;2.65;0.93;;;;;;;11.35;44.34;98767.31;5018052;28;20071;-78
2023/03/14 01:36:12;;;;;;;2.97;0.90;;;;;;;11.30;44.54;98765.16;5023685;28;20046;-78
2023/03/14 01:38:41;;;;;;;4.35;1.30;;;;;;;11.26;44.65;98757.47;5023481;28;20052;-78
2023/03/14 01:41:15;;;;;;;2.63;0.88;;;;;;;11.23;45.21;98753.22;5018473;28;20666;-78
2023/03/14 01:43:44;;;;;;;2.67;0.73;;;;;;;11.17;45.37;98756.72;5014419;28;20133;-77
2023/03/14 01:46:33;;;;;;;2.45;0.82;;;;;;;11.17;45.46;98766.84;5013054;28;20046;-77
2023/03/14 01:49:11;;;;;;;1.77;0.60;;;;;;;11.15;45.47;98766.16;5014084;28;20528;-77
2023/03/14 01:51:46;;;;;;;2.15;0.60;;;;;;;11.13;45.29;98765.53;5026256;28;20101;-79
2023/03/14 01:54:20;;;;;;;3.28;0.80;;;;;;;11.10;45.52;98766.75;5015453;28;20057;-79
2023/03/14 01:56:53;;;;;;;3.45;1.02;;;;;;;11.06;45.63;98754.47;5016465;28;20050;-77
2023/03/14 01:59:22;;;;;;;2.70;0.90;;;;;;;11.07;45.41;98744.34;5017320;28;20041;-77
2023/03/14 02:01:52;;;;;;;2.85;0.68;;;;;;;11.06;45.88;98748.16;5019811;28;20037;-78
2023/03/14 02:04:21;;;;;;;2.33;0.80;;;;;;;11.02;45.65;98750.41;5022375;28;20069;-81
2023/03/14 02:06:58;;;;;;;1.85;0.82;;;;;;;11.04;45.95;98755.72;5024653;28;20052;-78
2023/03/14 02:09:31;;;;;;;2.90;0.80;;;;;;;11.02;45.57;98746.81;5016372;28;20545;-78
2023/03/14 02:12:00;;;;;;;1.17;0.60;;;;;;;10.99;45.61;98737.94;5011980;28;20061;-79
2023/03/14 02:15:00;;;;;;;3.55;1.00;;;;;;;10.97;45.76;98751.00;4991508;28;20041;-79
2023/03/14 02:17:44;;;;;;;3.00;0.90;;;;;;;10.98;46.11;98755.41;5017582;28;20076;-80
2023/03/14 02:20:33;;;;;;;2.25;0.90;;;;;;;10.96;46.54;98752.03;5013380;28;20056;-80
2023/03/14 02:23:02;;;;;;;4.20;1.00;;;;;;;10.96;45.97;98742.97;5017042;28;20056;-79
2023/03/14 02:25:40;;;;;;;3.33;1.05;;;;;;;10.98;46.39;98758.13;5023090;28;20057;-80
2023/03/14 02:28:11;;;;;;;4.03;1.00;;;;;;;10.96;46.10;98748.44;5012682;28;20120;-79
2023/03/14 02:30:40;;;;;;;4.10;1.13;;;;;;;10.95;46.36;98755.78;5017524;28;20114;-79
2023/03/14 02:33:11;;;;;;;2.60;0.68;;;;;;;10.95;46.50;98761.28;5016821;28;20045;-79
2023/03/14 02:35:43;;;;;;;1.92;0.80;;;;;;;10.95;46.44;98757.69;5009801;28;20058;-79
2023/03/14 02:38:18;;;;;;;2.22;0.85;;;;;;;10.92;46.67;98752.56;5027837;28;20042;-80
2023/03/14 02:40:46;;;;;;;1.40;0.57;;;;;;;10.92;46.60;98755.31;5013836;28;20060;-80
2023/03/14 02:43:16;;;;;;;2.92;0.75;;;;;;;10.92;46.30;98758.03;5013944;28;20124;-80
2023/03/14 02:45:51;;;;;;;2.65;1.10;;;;;;;10.91;46.45;98751.72;5012366;28;20042;-80
2023/03/14 02:48:25;;;;;;;1.48;0.68;;;;;;;10.89;46.18;98744.75;5011890;28;20057;-80
2023/03/14 02:50:56;;;;;;;2.97;0.70;;;;;;;10.91;46.77;98742.66;5014054;28;20050;-80
2023/03/14 02:53:27;;;;;;;2.40;1.00;;;;;;;10.90;46.66;98736.34;5025171;28;20046;-80
2023/03/14 02:55:58;;;;;;;2.45;0.88;;;;;;;10.88;46.83;98741.16;5014209;28;20084;-79
2023/03/14 02:58:29;;;;;;;3.08;0.65;;;;;;;10.91;46.74;98738.03;5016382;28;20407;-79
2023/03/14 03:01:06;;;;;;;2.78;0.80;;;;;;;10.89;46.59;98733.81;5015425;28;20077;-81
2023/03/14 03:03:34;;;;;;;4.40;1.45;;;;;;;10.88;46.48;98734.84;5012835;28;20088;-79
2023/03/14 03:06:03;;;;;;;2.60;0.80;;;;;;;10.89;46.55;98729.19;5014719;28;20085;-80
2023/03/14 03:08:32;;;;;;;2.38;0.77;;;;;;;10.89;46.64;98720.13;5014655;28;20050;-80
2023/03/14 03:11:01;;;;;;;2.58;0.80;;;;;;;10.88;47.03;98715.69;5012218;28;20048;-80
2023/03/14 03:13:32;;;;;;;2.03;0.90;;;;;;;10.89;46.85;98720.13;5016496;28;20050;-80
2023/03/14 03:16:02;;;;;;;3.10;0.68;;;;;;;10.88;46.69;98722.00;5014574;28;20058;-81
2023/03/14 03:18:30;;;;;;;2.42;0.70;;;;;;;10.88;47.07;98718.44;5016803;28;20049;-79
2023/03/14 03:21:01;;;;;;;2.42;1.40;;;;;;;10.90;46.65;98721.78;5018087;28;20042;-80
2023/03/14 03:23:29;;;;;;;2.75;1.00;;;;;;;10.87;47.07;98720.31;5016238;28;20037;-79
2023/03/14 03:25:58;;;;;;;3.58;1.05;;;;;;;10.87;46.86;98712.09;5019009;28;20041;-81
2023/03/14 03:28:26;;;;;;;2.65;0.77;;;;;;;10.88;46.61;98716.53;5011667;28;20057;-80
2023/03/14 03:30:56;;;;;;;2.60;1.15;;;;;;;10.87;46.74;98717.56;5017091;28;20046;-79
2023/03/14 03:33:24;;;;;;;2.63;0.80;;;;;;;10.84;46.82;98723.41;5012595;28;20767;-80
2023/03/14 03:35:54;;;;;;;3.15;0.93;;;;;;;10.86;47.13;98728.69;5026069;28;20084;-79
2023/03/14 03:38:28;;;;;;;2.50;0.70;;;;;;;10.83;47.25;98724.44;5024404;28;20042;-79
2023/03/14 03:40:58;;;;;;;4.25;1.00;;;;;;;10.82;47.00;98730.09;5018182;28;20058;-79
2023/03/14 03:43:28;;;;;;;2.70;1.05;;;;;;;10.81;47.26;98720.22;5016138;28;20045;-79
2023/03/14 03:45:57;;;;;;;3.60;1.08;;;;;;;10.81;46.98;98717.47;5031796;28;20226;-79
2023/03/14 03:48:25;;;;;;;2.38;0.88;;;;;;;10.77;47.08;98708.78;5024497;28;20453;-79
2023/03/14 03:50:53;;;;;;;2.60;0.95;;;;;;;10.76;47.06;98714.44;5019696;28;20061;-79
2023/03/14 03:53:22;;;;;;;3.13;0.80;;;;;;;10.73;47.53;98712.09;5023021;28;20117;-79
2023/03/14 03:56:02;;;;;;;3.17;0.98;;;;;;;10.67;47.25;98694.53;5022266;28;20042;-79
2023/03/14 03:58:30;;;;;;;3.45;1.00;;;;;;;10.67;47.34;98700.00;5018461;28;20053;-80
2023/03/14 04:00:59;;;;;;;3.53;1.10;;;;;;;10.66;48.17;98687.34;5013768;28;20061;-80
2023/03/14 04:03:27;;;;;;;2.90;1.27;;;;;;;10.62;48.18;98677.00;5015913;28;20061;-80
2023/03/14 04:06:00;;;;;;;3.13;1.20;;;;;;;10.60;48.97;98679.91;5022960;28;20617;-79
2023/03/14 04:08:29;;;;;;;4.43;1.10;;;;;;;10.54;48.59;98675.19;5024216;28;20065;-79
2023/03/14 04:10:58;;;;;;;4.32;2.00;;;;;;;10.51;48.14;98668.16;5012530;28;20666;-79
2023/03/14 04:13:44;;;;;;;4.80;1.10;;;;;;;10.49;48.39;98672.97;5015562;28;20040;-80
2023/03/14 04:16:18;;;;;;;3.97;0.98;;;;;;;10.49;49.44;98670.22;5011818;28;20046;-79
2023/03/14 04:18:46;;;;;;;3.30;1.05;;;;;;;10.46;48.48;98659.69;5017382;28;20525;-79
2023/03/14 04:21:15;;;;;;;3.97;1.05;;;;;;;10.44;49.06;98660.91;5015580;28;20050;-79
2023/03/14 04:23:49;;;;;;;1.83;0.88;;;;;;;10.43;48.77;98657.31;5021911;28;20042;-79
2023/03/14 04:26:18;;;;;;;1.58;0.80;;;;;;;10.41;48.97;98656.66;5019040;28;20064;-78
2023/03/14 04:28:46;;;;;;;2.60;1.10;;;;;;;10.40;49.04;98648.66;5017678;28;20048;-79
2023/03/14 04:31:18;;;;;;;3.05;1.00;;;;;;;10.40;49.00;98652.22;5028939;28;20092;-78
2023/03/14 04:33:46;;;;;;;4.32;1.17;;;;;;;10.36;49.13;98645.44;5019924;28;20041;-78
2023/03/14 04:36:18;;;;;;;2.55;0.75;;;;;;;10.34;48.84;98644.75;5025549;28;20060;-79
2023/03/14 04:38:45;;;;;;;4.32;1.00;;;;;;;10.36;48.82;98642.69;5019487;28;20141;-78
2023/03/14 04:41:17;;;;;;;2.80;0.90;;;;;;;10.34;49.18;98639.28;5019133;28;20108;-79
2023/03/14 04:43:45;;;;;;;2.90;1.05;;;;;;;10.35;48.92;98634.69;5027324;28;20041;-78
2023/03/14 04:46:14;;;;;;;2.22;0.95;;;;;;;10.33;49.25;98632.13;5012134;28;20058;-78
2023/03/14 04:48:43;;;;;;;3.40;0.90;;;;;;;10.34;49.05;98631.09;5019996;28;20533;-79
2023/03/14 04:51:11;;;;;;;1.73;0.80;;;;;;;10.32;48.88;98629.59;5012652;28;20068;-79
2023/03/14 04:53:39;;;;;;;1.70;0.70;;;;;;;10.31;48.92;98628.75;5016404;28;20038;-78
2023/03/14 04:56:12;;;;;;;2.60;0.65;;;;;;;10.30;49.24;98627.06;5019216;28;20099;-78
2023/03/14 04:58:43;;;;;;;2.25;0.73;;;;;;;10.30;48.93;98623.47;5021390;28;20042;-78
2023/03/14 05:01:14;;;;;;;1.77;0.70;;;;;;;10.30;48.99;98623.47;5020540;28;20053;-78
2023/03/14 05:04:03;;;;;;;2.00;0.90;;;;;;;10.30;49.22;98618.00;5024123;28;20540;-78
2023/03/14 05:06:51;;;;;;;2.00;0.75;;;;;;;10.28;49.10;98617.34;5019299;28;20046;-78
2023/03/14 05:09:28;;;;;;;2.17;0.70;;;;;;;10.29;49.36;98605.34;5015156;28;20105;-79
2023/03/14 05:12:02;;;;;;;3.00;0.80;;;;;;;10.29;49.27;98611.69;5017627;28;20049;-78
2023/03/14 05:14:51;;;;;;;1.48;0.70;;;;;;;10.27;49.10;98602.81;5021465;28;20441;-78
2023/03/14 05:17:38;;;;;;;2.22;0.75;;;;;;;10.27;49.17;98593.75;5022966;28;20096;-78
2023/03/14 05:20:33;;;;;;;1.85;0.70;;;;;;;10.28;49.30;98590.84;4970662;28;20545;-78
2023/03/14 05:23:19;;;;;;;1.30;0.60;;;;;;;10.27;49.53;98596.50;5021503;28;20484;-78
2023/03/14 05:26:10;;;;;;;1.80;0.60;;;;;;;10.24;49.23;98593.09;5022166;28;20045;-78
2023/03/14 05:28:53;;;;;;;;;;;;;;;10.01;50.30;98600.50;5015399;28;20042;-78
2023/03/14 05:31:32;;;;;;;0.77;0.40;;;;;;;10.20;49.19;98586.31;5013662;28;20376;-78
2023/03/14 05:34:29;;;;;;;0.95;0.40;;;;;;;10.22;49.29;98584.25;4993309;28;20050;-78
2023/03/14 05:37:13;;;;;;;;;;;;;;;9.99;49.93;98577.97;5022967;28;20037;-79
2023/03/14 05:39:58;;;;;;;0.65;0.50;;;;;;;10.18;48.91;98579.31;5020190;28;20173;-78
2023/03/14 05:42:50;;;;;;;2.58;1.08;;;;;;;10.18;49.07;98574.72;5015651;28;20180;-78
2023/03/14 05:45:33;;;;;;;1.33;0.40;;;;;;;10.19;49.15;98587.34;5023681;28;20480;-79
2023/03/14 05:48:22;;;;;;;0.52;0.40;;;;;;;10.20;49.20;98583.59;5027133;28;20058;-78
2023/03/14 05:51:10;;;;;;;0.88;0.38;;;;;;;10.20;49.19;98583.59;5017748;28;20065;-78
2023/03/14 05:54:00;;;;;;;1.02;0.45;;;;;;;10.20;49.26;98589.03;5021799;28;20049;-79
2023/03/14 05:56:43;;;;;;;1.55;0.50;;;;;;;10.19;49.20;98581.03;5020921;28;20053;-78
2023/03/14 05:59:17;;;;;;;0.52;0.30;;;;;;;10.19;49.33;98578.28;5022608;28;20041;-79
2023/03/14 06:02:08;;;;;;;3.10;0.60;;;;;;;10.18;49.14;98576.59;5004075;28;20081;-79
2023/03/14 06:04:47;;;;;;;1.08;0.50;;;;;;;10.18;49.25;98579.31;5019231;28;20037;-78
2023/03/14 06:07:16;;;;;;;0.60;0.50;;;;;;;10.18;49.09;98577.44;5015931;28;20132;-79
2023/03/14 06:09:46;;;;;;;1.38;0.68;;;;;;;10.20;49.04;98577.25;5025097;28;20753;-78
2023/03/14 06:12:17;;;;;;;0.93;0.70;;;;;;;10.17;48.89;98580.34;5014772;28;20057;-79
2023/03/14 06:14:46;;;;;;;0.98;0.60;;;;;;;10.18;49.01;98590.25;5016872;28;20042;-79
2023/03/14 06:17:14;;;;;;;0.98;0.70;;;;;;;10.18;48.94;98574.72;5018289;28;20073;-79
2023/03/14 06:19:50;;;;;;;1.52;0.80;;;;;;;10.18;48.92;98571.97;5027028;28;20045;-79
2023/03/14 06:22:22;;;;;;;1.00;0.60;;;;;;;10.21;49.28;98577.09;5012465;28;20062;-79
2023/03/14 06:24:58;;;;;;;1.02;0.60;;;;;;;10.21;49.26;98584.44;5016064;28;20418;-79
2023/03/14 06:27:27;;;;;;;2.28;0.90;;;;;;;10.19;49.57;98581.03;5017593;28;20573;-78
2023/03/14 06:29:57;;;;;;;1.42;0.90;;;;;;;10.19;49.08;98581.03;5019636;28;20037;-78
2023/03/14 06:32:30;;;;;;;1.77;0.85;;;;;;;10.21;49.26;98592.63;5021830;28;20030;-80
2023/03/14 06:35:03;;;;;;;1.90;0.90;;;;;;;10.19;49.40;98589.22;5015185;28;20124;-79
2023/03/14 06:37:35;;;;;;;1.63;0.90;;;;;;;10.19;49.22;98589.22;5017700;28;20045;-78
2023/03/14 06:40:07;;;;;;;1.25;0.70;;;;;;;10.22;49.69;98583.41;5017912;28;20042;-78
2023/03/14 06:42:50;;;;;;;1.88;0.70;;;;;;;10.20;49.48;98588.19;5023524;28;20073;-79
2023/03/14 06:45:20;;;;;;;1.95;0.90;;;;;;;10.20;48.89;98590.94;5011052;28;20062;-79
2023/03/14 06:47:48;;;;;;;1.98;1.00;;;;;;;10.21;49.07;98592.63;5014092;28;20042;-78
2023/03/14 06:50:18;;;;;;;3.20;1.00;;;;;;;10.21;49.01;98592.63;5021054;28;20133;-79
2023/03/14 06:52:49;;;;;;;3.42;1.30;;;;;;;10.22;48.87;98597.06;5020853;28;20065;-78
2023/03/14 06:55:22;;;;;;;1.85;0.85;;;;;;;10.21;49.40;98590.75;5025300;28;20426;-79
2023/03/14 06:57:51;;;;;;;1.38;0.75;;;;;;;10.22;49.14;98599.81;5014915;28;20042;-78
2023/03/14 07:00:20;;;;;;;0.80;0.50;;;;;;;10.24;49.42;98597.69;5005010;28;20148;-79
2023/03/14 07:02:48;;;;;;;2.00;0.90;;;;;;;10.24;49.46;98606.75;5033064;28;20062;-78
2023/03/14 07:05:27;;;;;;;1.27;0.80;;;;;;;10.24;48.91;98605.91;5008495;28;20108;-78
2023/03/14 07:07:56;;;;;;;1.65;0.73;;;;;;;10.26;49.53;98603.00;5014567;28;20120;-78
2023/03/14 07:10:25;;;;;;;1.00;0.65;;;;;;;10.27;49.44;98600.06;5015853;28;20092;-79
2023/03/14 07:12:53;;;;;;;1.20;0.45;;;;;;;10.23;49.35;98585.09;5014801;28;20065;-79
2023/03/14 07:15:24;;;;;;;0.80;0.60;;;;;;;10.27;49.62;98605.53;5013656;28;20104;-79
2023/03/14 07:17:57;;;;;;;1.73;0.57;;;;;;;10.26;49.47;98603.84;5019544;28;20072;-78
2023/03/14 07:20:25;;;;;;;0.20;0.20;;;;;;;10.29;49.62;98602.63;5012987;28;20060;-78
2023/03/14 07:22:54;;;;;;;0.50;0.20;;;;;;;10.27;49.38;98608.28;5020681;28;20066;-78
2023/03/14 07:25:34;;;;;;;0.95;0.30;;;;;;;10.30;49.52;98615.25;5020288;28;20045;-79
2023/03/14 07:28:02;;;;;;;0.43;0.22;;;;;;;10.28;49.65;98615.44;5014553;28;20045;-78
2023/03/14 07:30:30;;;;;;;0.38;0.30;;;;;;;10.29;49.56;98619.03;5011122;28;20046;-78
2023/03/14 07:33:00;;;;;;;0.32;0.10;;;;;;;10.28;49.75;98622.78;5018022;28;20077;-79
2023/03/14 07:35:28;;;;;;;0.20;0.17;;;;;;;10.28;49.41;98618.19;5020796;28;20042;-78
2023/03/14 07:37:56;;;;;;;0.50;0.30;;;;;;;10.29;49.45;98619.88;5015833;28;20686;-79
2023/03/14 07:40:31;;;;;;;0.20;0.20;;;;;;;10.30;49.71;98620.72;5023446;28;20045;-79
2023/03/14 07:43:01;;;;;;;1.02;0.28;;;;;;;10.31;49.84;98627.91;5015480;28;20153;-78
2023/03/14 07:45:40;;;;;;;0.20;0.20;;;;;;;10.31;50.05;98628.75;5016170;28;20383;-79
2023/03/14 07:48:10;;;;;;;0.43;0.30;;;;;;;10.32;49.81;98622.22;5020685;28;20080;-78
2023/03/14 07:50:37;;;;;;;0.20;0.20;;;;;;;10.34;49.87;98627.50;5018088;28;20053;-79
2023/03/14 07:53:05;;;;;;;0.80;0.40;;;;;;;10.34;49.52;98633.81;5033297;28;20050;-79
2023/03/14 07:55:33;;;;;;;0.90;0.32;;;;;;;10.35;50.02;98635.53;5016381;28;20088;-79
2023/03/14 07:58:02;;;;;;;0.93;0.30;;;;;;;10.37;49.94;98638.94;5016307;28;20050;-78
2023/03/14 08:00:30;;;;;;;0.32;0.20;;;;;;;10.37;49.84;98638.94;5018907;28;20042;-79
2023/03/14 08:02:58;;;;;;;0.50;0.40;;;;;;;10.37;50.19;98636.19;5013999;28;20046;-79
2023/03/14 08:05:27;;;;;;;0.35;0.20;;;;;;;10.38;50.21;98645.25;5016947;28;21635;-79
2023/03/14 08:07:55;;;;;;;1.13;0.30;;;;;;;10.39;49.98;98645.06;5016684;28;20069;-78
2023/03/14 08:10:23;;;;;;;0.40;0.28;;;;;;;10.40;50.46;98641.28;5016453;28;20662;-78
2023/03/14 08:12:51;;;;;;;0.82;0.43;;;;;;;10.43;50.09;98640.06;5017421;28;20059;-78
2023/03/14 08:15:20;;;;;;;1.55;0.50;;;;;;;10.43;50.08;98634.59;5021656;28;20485;-78
2023/03/14 08:17:50;;;;;;;0.70;0.40;;;;;;;10.45;50.53;98638.84;5014098;28;20050;-78
2023/03/14 08:20:21;;;;;;;0.85;0.40;;;;;;;10.48;50.27;98651.31;5017045;28;20069;-78
2023/03/14 08:22:49;;;;;;;0.50;0.38;;;;;;;10.49;50.40;98642.88;5018485;28;20038;-78
2023/03/14 08:25:18;;;;;;;0.95;0.40;;;;;;;10.51;50.33;98640.81;5018451;28;20414;-79
2023/03/14 08:27:45;;;;;;;0.52;0.20;;;;;;;10.53;50.66;98648.84;5015549;28;20133;-79
2023/03/14 08:30:16;;;;;;;0.50;0.40;;;;;;;10.56;50.85;98648.50;5014968;28;20061;-77
2023/03/14 08:32:45;;;;;;;0.47;0.30;;;;;;;10.59;50.39;98657.19;5013899;28;20477;-78
2023/03/14 08:35:13;;;;;;;0.70;0.40;;;;;;;10.59;50.64;98657.19;5015172;28;20465;-80
2023/03/14 08:37:41;;;;;;;0.63;0.30;;;;;;;10.62;50.49;98658.69;5020993;28;20033;-78
2023/03/14 08:40:11;;;;;;;1.00;0.30;;;;;;;10.64;50.48;98651.16;5010953;28;20050;-78
2023/03/14 08:42:40;;;;;;;0.60;0.40;;;;;;;10.65;50.54;98652.00;5008007;28;20052;-78
2023/03/14 08:45:09;;;;;;;0.50;0.50;;;;;;;10.66;50.62;98654.53;5016080;28;20037;-78
2023/03/14 08:47:37;;;;;;;0.57;0.40;;;;;;;10.67;50.55;98658.13;5011127;28;20041;-78
2023/03/14 08:50:09;;;;;;;0.93;0.50;;;;;;;10.69;50.87;98656.91;5005073;28;20046;-77
2023/03/14 08:52:40;;;;;;;0.82;0.47;;;;;;;10.69;50.76;98659.63;5024586;28;20167;-78
2023/03/14 08:55:09;;;;;;;1.08;0.63;;;;;;;10.71;50.26;98667.66;5019356;28;20042;-78
2023/03/14 08:57:37;;;;;;;1.33;0.63;;;;;;;10.71;50.46;98673.97;5011057;28;20046;-79
2023/03/14 09:00:10;;;;;;;1.02;0.70;;;;;;;10.71;51.06;98670.41;5011425;28;20045;-78
2023/03/14 09:02:38;;;;;;;1.10;0.70;;;;;;;10.73;50.44;98679.28;5017554;28;20046;-78
2023/03/14 09:05:09;;;;;;;1.13;0.60;;;;;;;10.75;50.62;98688.13;5012887;28;20140;-79
2023/03/14 09:07:38;;;;;;;2.05;0.80;;;;;;;10.72;50.70;98696.72;5008759;28;20053;-79
2023/03/14 09:10:07;;;;;;;1.02;0.75;;;;;;;10.72;50.65;98708.50;5010115;28;20048;-79
2023/03/14 09:12:37;;;;;;;1.35;0.60;;;;;;;10.71;50.77;98703.22;5012447;28;20069;-80
2023/03/14 09:15:06;;;;;;;1.10;0.57;;;;;;;10.70;50.81;98707.00;5031083;28;20510;-79
2023/03/14 09:17:34;;;;;;;0.93;0.60;;;;;;;10.69;50.82;98706.13;5021175;28;20058;-79
2023/03/14 09:20:05;;;;;;;1.25;0.70;;;;;;;10.69;50.58;98724.44;5012448;28;20054;-78
2023/03/14 09:22:35;;;;;;;0.40;0.40;;;;;;;10.67;51.15;98734.72;5012204;28;20042;-78
2023/03/14 09:25:03;;;;;;;1.40;0.50;;;;;;;10.62;50.74;98772.72;5015023;28;20049;-79
2023/03/14 09:27:31;;;;;;;1.08;0.40;;;;;;;10.58;50.48;98780.44;5011309;28;20457;-79
2023/03/14 09:29:59;;;;;;;0.60;0.40;;;;;;;10.54;50.49;98793.66;5016262;28;20042;-79
2023/03/14 09:32:27;;;;;;;0.70;0.40;;;;;;;10.50;50.41;98813.31;5010950;28;20042;-79
2023/03/14 09:34:55;;;;;;;0.75;0.25;;;;;;;10.44;49.53;98814.03;5017114;28;20061;-79
2023/03/14 09:37:23;;;;;;;0.55;0.40;;;;;;;10.38;49.51;98823.84;5014685;28;20049;-78
2023/03/14 09:39:52;;;;;;;0.57;0.20;;;;;;;10.34;49.21;98838.91;5028549;28;20088;-79
2023/03/14 09:42:24;;;;;;;0.55;0.20;;;;;;;10.28;49.43;98864.22;5013123;28;20046;-79
2023/03/14 09:44:57;;;;;;;0.20;0.20;;;;;;;10.22;49.09;98873.16;5016366;28;20081;-78
2023/03/14 09:47:26;;;;;;;0.30;0.20;;;;;;;10.16;49.19;98877.44;5019395;28;20061;-78
2023/03/14 09:49:54;;;;;;;1.33;0.40;;;;;;;10.11;49.59;98889.97;5011080;28;20042;-79
2023/03/14 09:52:25;;;;;;;1.02;0.40;;;;;;;10.07;49.65;98900.38;5015022;28;20073;-79
2023/03/14 09:54:58;;;;;;;0.82;0.50;;;;;;;10.05;49.47;98909.81;5012183;28;20045;-78
2023/03/14 09:57:27;;;;;;;0.73;0.40;;;;;;;9.99;49.38;98913.28;5017545;28;20053;-78
2023/03/14 09:59:58;;;;;;;0.40;0.32;;;;;;;9.98;49.40;98930.69;5012467;28;20124;-79
2023/03/14 10:02:34;;;;;;;0.82;0.40;;;;;;;9.95;49.73;98937.34;5018166;28;20065;-79
2023/03/14 10:05:02;;;;;;;1.85;0.90;;;;;;;9.90;49.40;98938.94;5015587;28;20049;-79
2023/03/14 10:07:34;;;;;;;0.73;0.57;;;;;;;9.88;49.06;98949.19;5013234;28;20602;-79
2023/03/14 10:10:12;;;;;;;0.52;0.40;;;;;;;9.87;49.10;98959.25;5032012;28;20045;-79
2023/03/14 10:12:41;;;;;;;1.10;0.68;;;;;;;9.80;49.36;98969.19;5014539;28;20045;-79
2023/03/14 10:15:13;;;;;;;0.98;0.70;;;;;;;9.78;49.49;98966.63;5016538;28;20044;-79
2023/03/14 10:17:43;;;;;;;0.65;0.50;;;;;;;9.77;49.00;98991.38;5007557;28;20046;-78
2023/03/14 10:20:32;;;;;;;0.57;0.47;;;;;;;9.76;48.96;98995.97;5011627;28;20046;-78
2023/03/14 10:23:01;;;;;;;1.30;0.60;;;;;;;9.74;48.87;99005.41;5017516;28;20034;-78
2023/03/14 10:25:32;;;;;;;0.98;0.70;;;;;;;9.73;49.36;99017.34;5014300;28;20051;-78
2023/03/14 10:28:01;;;;;;;1.08;0.60;;;;;;;9.70;49.00;99020.41;5017629;28;20493;-78
2023/03/14 10:30:35;;;;;;;1.15;0.60;;;;;;;9.71;49.44;99038.53;5022695;28;20534;-79
2023/03/14 10:33:09;;;;;;;0.77;0.50;;;;;;;9.70;49.11;99048.59;5013091;28;20056;-79
2023/03/14 10:35:37;;;;;;;1.08;0.70;;;;;;;9.66;49.28;99066.34;5019625;28;20079;-79
2023/03/14 10:38:05;;;;;;;2.03;0.98;;;;;;;9.64;49.35;99076.59;5018038;28;20108;-79
2023/03/14 10:40:39;;;;;;;3.33;0.80;;;;;;;9.65;48.84;99088.38;5015697;28;20081;-78
2023/03/14 10:43:15;;;;;;;2.00;0.85;;;;;;;9.61;49.06;99087.00;5014627;28;20153;-78
2023/03/14 10:45:45;;;;;;;1.30;0.70;;;;;;;9.57;49.16;99078.31;5018507;28;20045;-79
2023/03/14 10:48:21;;;;;;;1.25;0.60;;;;;;;9.57;50.04;99094.69;5031530;28;20081;-78
2023/03/14 10:50:50;;;;;;;0.88;0.60;;;;;;;9.54;49.33;99111.41;5019389;28;20042;-79
2023/03/14 10:53:19;;;;;;;1.83;0.70;;;;;;;9.51;49.37;99121.81;5021475;28;20049;-80
2023/03/14 10:55:49;;;;;;;2.92;1.25;;;;;;;9.52;49.46;99120.78;5019405;28;20053;-78
2023/03/14 10:58:25;;;;;;;1.58;0.90;;;;;;;9.52;50.00;99150.84;5029505;28;20056;-80
2023/03/14 11:01:05;;;;;;;0.95;0.70;;;;;;;9.51;49.93;99160.91;5014955;28;20054;-80
2023/03/14 11:03:38;;;;;;;0.82;0.70;;;;;;;9.49;49.64;99170.31;5025268;28;20128;-80
2023/03/14 11:06:15;;;;;;;2.33;0.90;;;;;;;9.47;49.53;99181.41;5016551;28;20049;-79
2023/03/14 11:08:49;;;;;;;1.40;1.00;;;;;;;9.48;49.89;99191.28;5015803;28;20046;-80
2023/03/14 11:11:23;;;;;;;2.22;1.02;;;;;;;9.46;49.70;99226.97;5036619;28;20064;-79
2023/03/14 11:14:11;;;;;;;1.05;0.60;;;;;;;9.45;49.63;99227.13;5017155;28;20045;-79
2023/03/14 11:16:49;;;;;;;0.93;0.68;;;;;;;9.42;49.33;99231.03;5019180;28;20042;-78
2023/03/14 11:19:30;;;;;;;0.98;0.68;;;;;;;9.40;49.47;99240.44;5016390;28;20048;-78
2023/03/14 11:22:06;;;;;;;1.27;0.70;;;;;;;9.36;49.22;99241.72;5028201;28;20069;-78
2023/03/14 11:24:54;;;;;;;1.77;0.95;;;;;;;9.35;49.28;99251.78;5017837;28;20484;-79
2023/03/14 11:27:32;;;;;;;3.47;1.00;;;;;;;9.33;49.14;99263.94;5021888;28;20041;-78
2023/03/14 11:30:07;;;;;;;1.90;1.10;;;;;;;9.31;49.16;99280.47;5015027;28;20073;-79
2023/03/14 11:32:43;;;;;;;2.60;1.20;;;;;;;9.29;49.05;99287.09;5015705;28;20044;-78
2023/03/14 11:35:18;;;;;;;2.25;1.20;;;;;;;9.28;48.57;99297.16;5015826;28;20042;-78
2023/03/14 11:37:50;;;;;;;1.50;1.20;;;;;;;9.25;48.88;99310.28;5019499;28;20100;-78
2023/03/14 11:40:21;;;;;;;4.00;1.30;;;;;;;9.21;48.99;99314.38;5017652;28;20050;-78
2023/03/14 11:42:55;;;;;;;1.77;1.10;;;;;;;9.22;48.38;99318.81;5016817;28;20361;-79
2023/03/14 11:45:30;;;;;;;2.10;1.02;;;;;;;9.19;48.19;99319.97;5023375;28;20050;-79
2023/03/14 11:48:11;;;;;;;2.17;1.10;;;;;;;9.18;48.30;99328.31;5015010;28;20138;-79
2023/03/14 11:50:42;;;;;;;3.00;1.08;;;;;;;9.14;48.32;99338.72;5016319;28;20065;-79
2023/03/14 11:53:15;;;;;;;1.95;0.90;;;;;;;9.16;47.86;99349.50;5021443;28;20149;-80
2023/03/14 11:55:45;;;;;;;2.67;0.95;;;;;;;9.14;48.03;99355.09;5013118;28;20050;-80
2023/03/14 11:58:19;;;;;;;2.38;0.90;;;;;;;9.14;47.41;99367.91;5037079;28;20042;-80
2023/03/14 12:00:49;;;;;;;2.30;1.00;;;;;;;9.13;48.12;99371.63;5022566;28;20058;-80